createdAt,value
2017-09-22T00:00:04.786Z,17.30
2017-09-22T00:02:32.234Z,17.30
2017-09-22T00:04:59.739Z,17.20
2017-09-22T00:07:27.268Z,17.10
2017-09-22T00:09:54.746Z,17.10
2017-09-22T00:12:22.205Z,17.10
2017-09-22T00:14:49.634Z,17.00
2017-09-22T00:17:17.080Z,16.90
2017-09-22T00:19:44.518Z,16.90
2017-09-22T00:22:12.732Z,16.90
2017-09-22T00:24:40.188Z,16.90
2017-09-22T00:27:07.650Z,16.90
2017-09-22T00:29:35.108Z,16.90
2017-09-22T00:32:02.575Z,16.90
2017-09-22T00:34:30.006Z,17.00
2017-09-22T00:36:57.486Z,17.00
2017-09-22T00:39:24.934Z,17.00
2017-09-22T00:41:52.375Z,17.10
2017-09-22T00:44:19.829Z,17.20
2017-09-22T00:46:47.272Z,17.20
2017-09-22T00:49:14.765Z,17.30
2017-09-22T00:51:42.195Z,17.30
2017-09-22T00:54:09.645Z,17.30
2017-09-22T00:56:37.142Z,17.00
2017-09-22T00:59:04.585Z,16.70
2017-09-22T01:01:32.040Z,16.50
2017-09-22T01:03:59.495Z,16.30
2017-09-22T01:06:26.943Z,16.20
2017-09-22T01:08:54.492Z,16.10
2017-09-22T01:11:21.999Z,16.10
2017-09-22T01:13:49.447Z,16.10
2017-09-22T01:16:16.985Z,16.10
2017-09-22T01:18:44.441Z,16.30
2017-09-22T01:21:11.881Z,16.40
2017-09-22T01:23:39.332Z,16.40
2017-09-22T01:26:06.787Z,16.50
2017-09-22T01:28:34.233Z,16.60
2017-09-22T01:31:01.726Z,16.70
2017-09-22T01:33:29.177Z,16.80
2017-09-22T01:35:56.615Z,16.90
2017-09-22T01:38:24.095Z,17.00
2017-09-22T01:40:51.545Z,17.00
2017-09-22T01:43:19.002Z,17.10
2017-09-22T01:45:46.443Z,17.10
2017-09-22T01:48:13.967Z,17.10
2017-09-22T01:50:42.194Z,17.20
2017-09-22T01:53:09.654Z,17.10
2017-09-22T01:55:37.094Z,17.20
2017-09-22T01:58:04.554Z,17.10
2017-09-22T02:00:32.022Z,16.90
2017-09-22T02:02:59.469Z,17.00
2017-09-22T02:05:26.930Z,17.00
2017-09-22T02:07:54.391Z,16.80
2017-09-22T02:10:21.864Z,16.70
2017-09-22T02:12:49.398Z,16.70
2017-09-22T02:15:16.838Z,16.90
2017-09-22T02:17:44.275Z,17.00
2017-09-22T02:20:11.769Z,17.00
2017-09-22T02:22:39.227Z,17.10
2017-09-22T02:25:06.691Z,17.10
2017-09-22T02:27:34.146Z,17.10
2017-09-22T02:30:01.592Z,17.10
2017-09-22T02:32:29.034Z,17.00
2017-09-22T02:34:56.475Z,16.90
2017-09-22T02:37:23.980Z,16.90
2017-09-22T02:39:51.407Z,16.90
2017-09-22T02:42:18.846Z,16.90
2017-09-22T02:44:46.338Z,16.70
2017-09-22T02:47:13.778Z,16.50
2017-09-22T02:49:41.250Z,16.50
2017-09-22T02:52:08.695Z,16.50
2017-09-22T02:54:36.157Z,16.40
2017-09-22T02:57:03.716Z,16.40
2017-09-22T02:59:31.154Z,16.40
2017-09-22T03:01:58.626Z,16.40
2017-09-22T03:04:26.076Z,16.20
2017-09-22T03:06:53.547Z,16.20
2017-09-22T03:09:21.108Z,16.20
2017-09-22T03:11:48.543Z,16.00
2017-09-22T03:14:16.006Z,15.90
2017-09-22T03:16:43.451Z,15.80
2017-09-22T03:19:10.909Z,15.60
2017-09-22T03:21:38.389Z,15.50
2017-09-22T03:24:05.943Z,15.40
2017-09-22T03:26:33.398Z,15.40
2017-09-22T03:29:00.853Z,15.40
2017-09-22T03:31:28.392Z,15.30
2017-09-22T03:33:55.874Z,15.30
2017-09-22T03:36:23.330Z,15.20
2017-09-22T03:38:50.770Z,15.30
2017-09-22T03:41:18.242Z,15.20
2017-09-22T03:43:45.791Z,15.10
2017-09-22T03:46:13.232Z,15.00
2017-09-22T03:48:40.673Z,14.80
2017-09-22T03:51:08.175Z,14.80
2017-09-22T03:53:35.611Z,14.80
2017-09-22T03:56:03.071Z,14.70
2017-09-22T03:58:30.535Z,14.60
2017-09-22T04:00:58.002Z,14.60
2017-09-22T04:03:25.426Z,14.60
2017-09-22T04:05:52.893Z,14.50
2017-09-22T04:08:20.329Z,14.40
2017-09-22T04:10:47.813Z,14.40
2017-09-22T04:13:15.250Z,14.30
2017-09-22T04:15:42.723Z,14.30
2017-09-22T04:18:10.972Z,14.40
2017-09-22T04:20:39.210Z,14.40
2017-09-22T04:23:06.650Z,14.30
2017-09-22T04:25:34.217Z,14.40
2017-09-22T04:28:01.673Z,14.50
2017-09-22T04:30:29.215Z,14.50
2017-09-22T04:32:56.673Z,14.40
2017-09-22T04:35:25.726Z,14.40
2017-09-22T04:37:53.180Z,14.40
2017-09-22T04:40:20.670Z,14.30
2017-09-22T04:42:48.204Z,14.30
2017-09-22T04:45:15.660Z,14.30
2017-09-22T04:47:43.321Z,14.20
2017-09-22T04:50:10.788Z,14.10
2017-09-22T04:52:38.307Z,14.00
2017-09-22T04:55:05.939Z,14.00
2017-09-22T04:57:33.392Z,13.90
2017-09-22T05:00:00.841Z,13.90
2017-09-22T05:02:28.279Z,13.90
2017-09-22T05:04:56.499Z,14.00
2017-09-22T05:07:23.955Z,13.90
2017-09-22T05:09:51.407Z,14.00
2017-09-22T05:12:19.276Z,14.10
2017-09-22T05:14:46.774Z,14.10
2017-09-22T05:17:14.325Z,14.10
2017-09-22T05:19:41.818Z,14.10
2017-09-22T05:22:10.050Z,14.00
2017-09-22T05:24:37.571Z,13.90
2017-09-22T05:27:05.057Z,14.00
2017-09-22T05:29:32.495Z,14.00
2017-09-22T05:31:59.930Z,13.90
2017-09-22T05:34:27.433Z,14.00
2017-09-22T05:36:55.064Z,14.10
2017-09-22T05:39:22.542Z,14.00
2017-09-22T05:41:49.993Z,14.00
2017-09-22T05:44:17.431Z,13.90
2017-09-22T05:46:44.883Z,13.90
2017-09-22T05:49:12.325Z,13.90
2017-09-22T05:51:39.831Z,13.90
2017-09-22T05:54:07.278Z,14.10
2017-09-22T05:56:34.734Z,14.00
2017-09-22T05:59:02.299Z,13.90
2017-09-22T06:01:29.751Z,13.80
2017-09-22T06:03:57.218Z,13.80
2017-09-22T06:06:24.674Z,13.80
2017-09-22T06:08:52.213Z,13.80
2017-09-22T06:11:19.679Z,13.80
2017-09-22T06:13:47.119Z,13.70
2017-09-22T06:16:14.594Z,13.70
2017-09-22T06:18:42.086Z,13.70
2017-09-22T06:21:10.303Z,13.70
2017-09-22T06:23:37.747Z,13.60
2017-09-22T06:26:05.210Z,13.70
2017-09-22T06:28:32.647Z,13.80
2017-09-22T06:31:00.083Z,13.80
2017-09-22T06:33:27.541Z,13.80
2017-09-22T06:35:55.759Z,14.00
2017-09-22T06:38:23.210Z,13.90
2017-09-22T06:40:50.643Z,14.10
2017-09-22T06:43:19.770Z,14.40
2017-09-22T06:45:47.216Z,14.30
2017-09-22T06:48:14.706Z,14.50
2017-09-22T06:50:42.136Z,14.70
2017-09-22T06:53:09.585Z,14.90
2017-09-22T06:55:37.029Z,15.10
2017-09-22T06:58:04.546Z,15.20
2017-09-22T07:00:32.080Z,15.40
2017-09-22T07:02:59.618Z,15.50
2017-09-22T07:05:27.299Z,15.70
2017-09-22T07:07:54.772Z,15.80
2017-09-22T07:10:26.829Z,16.00
2017-09-22T07:12:54.271Z,16.10
2017-09-22T07:15:22.231Z,16.20
2017-09-22T07:17:49.662Z,16.20
2017-09-22T07:20:17.115Z,16.30
2017-09-22T07:22:44.559Z,16.20
2017-09-22T07:25:12.789Z,16.30
2017-09-22T07:27:40.327Z,16.30
2017-09-22T07:30:07.767Z,16.30
2017-09-22T07:32:35.358Z,16.30
2017-09-22T07:35:02.795Z,16.30
2017-09-22T07:37:30.555Z,16.20
2017-09-22T07:39:58.049Z,16.30
2017-09-22T07:42:25.485Z,16.30
2017-09-22T07:44:52.927Z,16.30
2017-09-22T07:47:20.411Z,16.40
2017-09-22T07:49:47.939Z,16.40
2017-09-22T07:52:15.437Z,16.50
2017-09-22T07:54:42.873Z,16.50
2017-09-22T07:57:10.335Z,16.50
2017-09-22T07:59:37.808Z,16.70
2017-09-22T08:02:05.287Z,16.70
2017-09-22T08:04:33.531Z,16.80
2017-09-22T08:07:01.055Z,16.80
2017-09-22T08:09:28.475Z,16.90
2017-09-22T08:11:56.690Z,16.90
2017-09-22T08:14:24.143Z,16.90
2017-09-22T08:16:51.596Z,17.00
2017-09-22T08:19:19.158Z,17.10
2017-09-22T08:21:47.178Z,17.30
2017-09-22T08:24:14.624Z,17.50
2017-09-22T08:26:42.086Z,17.60
2017-09-22T08:29:09.530Z,17.60
2017-09-22T08:31:36.969Z,17.70
2017-09-22T08:34:04.540Z,17.80
2017-09-22T08:36:32.099Z,17.80
2017-09-22T08:38:59.645Z,17.90
2017-09-22T08:41:27.100Z,18.00
2017-09-22T08:43:54.535Z,18.00
2017-09-22T08:46:22.095Z,18.00
2017-09-22T08:48:49.539Z,17.80
2017-09-22T08:51:17.019Z,17.70
2017-09-22T08:53:44.499Z,17.60
2017-09-22T08:56:11.941Z,17.60
2017-09-22T08:58:39.395Z,17.70
2017-09-22T09:01:06.862Z,17.80
2017-09-22T09:03:34.368Z,17.90
2017-09-22T09:06:01.844Z,17.90
2017-09-22T09:08:29.454Z,17.80
2017-09-22T09:10:56.925Z,17.90
2017-09-22T09:13:25.280Z,18.20
2017-09-22T09:15:52.739Z,18.10
2017-09-22T09:18:20.282Z,18.20
2017-09-22T09:20:47.741Z,18.30
2017-09-22T09:23:15.381Z,18.40
2017-09-22T09:25:42.969Z,18.60
2017-09-22T09:28:10.501Z,18.70
2017-09-22T09:30:37.919Z,18.70
2017-09-22T09:33:05.471Z,18.90
2017-09-22T09:35:32.951Z,19.00
2017-09-22T09:38:00.387Z,18.90
2017-09-22T09:40:27.827Z,18.80
2017-09-22T09:42:55.271Z,18.70
2017-09-22T09:45:22.724Z,18.70
2017-09-22T09:47:50.176Z,18.80
2017-09-22T09:50:18.385Z,19.00
2017-09-22T09:52:46.038Z,18.90
2017-09-22T09:55:13.494Z,19.10
2017-09-22T09:57:40.962Z,19.20
2017-09-22T10:00:08.432Z,19.40
2017-09-22T10:02:36.026Z,19.40
2017-09-22T10:05:04.272Z,19.40
2017-09-22T10:07:31.707Z,19.40
2017-09-22T10:09:59.140Z,19.40
2017-09-22T10:12:26.613Z,19.40
2017-09-22T10:14:54.148Z,19.60
2017-09-22T10:17:21.769Z,19.70
2017-09-22T10:19:49.221Z,19.80
2017-09-22T10:22:17.459Z,19.80
2017-09-22T10:24:44.918Z,19.80
2017-09-22T10:27:13.147Z,19.90
2017-09-22T10:29:40.697Z,19.90
2017-09-22T10:32:08.140Z,20.10
2017-09-22T10:34:35.612Z,20.30
2017-09-22T10:37:03.063Z,20.30
2017-09-22T10:39:30.514Z,20.50
2017-09-22T10:41:57.982Z,20.70
2017-09-22T10:44:25.434Z,20.60
2017-09-22T10:46:52.897Z,20.50
2017-09-22T10:49:20.340Z,20.30
2017-09-22T10:51:47.804Z,19.90
2017-09-22T10:54:15.235Z,19.70
2017-09-22T10:56:42.686Z,19.60
2017-09-22T10:59:10.316Z,19.80
2017-09-22T11:01:38.542Z,20.10
2017-09-22T11:04:06.039Z,20.00
2017-09-22T11:06:34.281Z,20.50
2017-09-22T11:09:01.703Z,20.40
2017-09-22T11:11:29.148Z,20.70
2017-09-22T11:13:56.588Z,20.60
2017-09-22T11:16:24.824Z,20.50
2017-09-22T11:18:52.279Z,20.40
2017-09-22T11:21:19.810Z,20.10
2017-09-22T11:23:47.251Z,19.90
2017-09-22T11:26:14.716Z,19.70
2017-09-22T11:28:42.179Z,19.80
2017-09-22T11:31:09.172Z,19.80
2017-09-22T11:33:36.670Z,20.20
2017-09-22T11:36:04.122Z,20.40
2017-09-22T11:38:31.610Z,20.50
2017-09-22T11:40:59.062Z,20.60
2017-09-22T11:43:26.526Z,20.80
2017-09-22T11:45:53.996Z,21.00
2017-09-22T11:48:21.543Z,21.00
2017-09-22T11:50:49.028Z,21.20
2017-09-22T11:53:16.506Z,21.50
2017-09-22T11:55:44.739Z,21.40
2017-09-22T11:58:12.203Z,21.40
2017-09-22T12:00:39.639Z,21.10
2017-09-22T12:03:07.934Z,20.90
2017-09-22T12:05:35.379Z,21.10
2017-09-22T12:08:02.831Z,21.00
2017-09-22T12:10:30.370Z,20.80
2017-09-22T12:12:57.805Z,20.50
2017-09-22T12:15:25.994Z,20.50
2017-09-22T12:17:53.459Z,20.40
2017-09-22T12:20:20.892Z,20.20
2017-09-22T12:22:48.386Z,20.00
2017-09-22T12:25:15.823Z,20.10
2017-09-22T12:27:43.279Z,20.30
2017-09-22T12:30:10.766Z,20.30
2017-09-22T12:32:38.210Z,20.00
2017-09-22T12:35:05.723Z,20.00
2017-09-22T12:37:33.948Z,20.20
2017-09-22T12:40:01.393Z,20.10
2017-09-22T12:42:28.841Z,20.40
2017-09-22T12:44:56.316Z,20.60
2017-09-22T12:47:23.782Z,20.90
2017-09-22T12:49:51.263Z,20.90
2017-09-22T12:52:18.785Z,21.10
2017-09-22T12:54:46.302Z,21.00
2017-09-22T12:57:14.523Z,20.60
2017-09-22T12:59:41.990Z,20.50
2017-09-22T13:02:09.511Z,20.40
2017-09-22T13:04:36.996Z,20.30
2017-09-22T13:07:04.440Z,20.20
2017-09-22T13:09:32.703Z,20.20
2017-09-22T13:12:00.165Z,20.50
2017-09-22T13:14:27.610Z,20.70
2017-09-22T13:16:55.072Z,21.00
2017-09-22T13:19:22.555Z,21.10
2017-09-22T13:21:49.995Z,21.20
2017-09-22T13:24:17.454Z,21.20
2017-09-22T13:26:44.902Z,21.00
2017-09-22T13:29:12.426Z,21.00
2017-09-22T13:31:40.640Z,20.90
2017-09-22T13:34:08.174Z,20.90
2017-09-22T13:36:35.630Z,21.00
2017-09-22T13:39:03.108Z,21.10
2017-09-22T13:41:30.543Z,21.00
2017-09-22T13:43:58.029Z,20.70
2017-09-22T13:46:25.459Z,20.50
2017-09-22T13:48:52.902Z,20.50
2017-09-22T13:51:20.392Z,20.40
2017-09-22T13:53:47.838Z,20.40
2017-09-22T13:56:15.282Z,20.40
2017-09-22T13:58:42.731Z,20.30
2017-09-22T14:01:10.235Z,20.20
2017-09-22T14:03:37.694Z,20.20
2017-09-22T14:06:05.140Z,20.30
2017-09-22T14:08:32.672Z,20.00
2017-09-22T14:11:00.114Z,19.90
2017-09-22T14:13:28.322Z,19.90
2017-09-22T14:15:55.771Z,19.80
2017-09-22T14:18:23.223Z,20.00
2017-09-22T14:20:50.703Z,20.00
2017-09-22T14:23:18.990Z,20.10
2017-09-22T14:25:46.440Z,20.10
2017-09-22T14:28:13.882Z,20.10
2017-09-22T14:30:41.329Z,20.00
2017-09-22T14:33:08.786Z,20.00
2017-09-22T14:35:36.327Z,19.90
2017-09-22T14:38:03.774Z,19.70
2017-09-22T14:40:31.201Z,19.70
2017-09-22T14:42:59.639Z,19.80
2017-09-22T14:45:27.124Z,19.70
2017-09-22T14:47:54.647Z,19.80
2017-09-22T14:50:22.122Z,20.00
2017-09-22T14:52:49.607Z,20.10
2017-09-22T14:55:17.154Z,20.20
2017-09-22T14:57:44.748Z,20.10
2017-09-22T15:00:13.166Z,20.00
2017-09-22T15:02:40.602Z,20.00
2017-09-22T15:05:08.133Z,20.00
2017-09-22T15:07:36.336Z,20.00
2017-09-22T15:10:03.779Z,20.00
2017-09-22T15:12:31.218Z,20.00
2017-09-22T15:14:58.774Z,20.20
2017-09-22T15:17:26.207Z,20.20
2017-09-22T15:19:53.649Z,20.10
2017-09-22T15:22:21.097Z,20.10
2017-09-22T15:24:48.571Z,20.10
2017-09-22T15:27:16.011Z,20.10
2017-09-22T15:29:43.677Z,20.00
2017-09-22T15:32:11.420Z,19.90
2017-09-22T15:34:38.852Z,19.80
2017-09-22T15:37:06.290Z,19.90
2017-09-22T15:39:33.740Z,19.90
2017-09-22T15:42:01.955Z,19.90
2017-09-22T15:44:29.398Z,19.90
2017-09-22T15:46:56.982Z,19.90
2017-09-22T15:49:24.488Z,19.80
2017-09-22T15:51:53.292Z,19.80
2017-09-22T15:54:21.507Z,19.70
2017-09-22T15:56:48.953Z,19.60
2017-09-22T15:59:16.421Z,19.50
2017-09-22T16:01:43.866Z,19.50
2017-09-22T16:04:11.319Z,19.50
2017-09-22T16:06:38.782Z,19.60
2017-09-22T16:09:06.228Z,19.60
2017-09-22T16:11:33.683Z,19.70
2017-09-22T16:14:01.963Z,19.70
2017-09-22T16:16:29.436Z,19.70
2017-09-22T16:18:56.901Z,19.70
2017-09-22T16:21:24.454Z,19.60
2017-09-22T16:23:51.886Z,19.60
2017-09-22T16:26:19.359Z,19.50
2017-09-22T16:28:46.817Z,19.40
2017-09-22T16:31:14.271Z,19.40
2017-09-22T16:33:41.752Z,19.30
2017-09-22T16:36:09.383Z,19.20
2017-09-22T16:38:36.840Z,19.10
2017-09-22T16:41:04.306Z,19.00
2017-09-22T16:43:31.763Z,18.90
2017-09-22T16:45:59.212Z,18.80
2017-09-22T16:48:26.735Z,18.70
2017-09-22T16:50:54.199Z,18.70
2017-09-22T16:53:21.713Z,18.70
2017-09-22T16:55:49.987Z,18.70
2017-09-22T16:58:17.463Z,18.60
2017-09-22T17:00:45.790Z,18.80
2017-09-22T17:03:13.351Z,18.80
2017-09-22T17:05:40.862Z,18.90
2017-09-22T17:08:09.144Z,18.70
2017-09-22T17:10:36.669Z,18.70
2017-09-22T17:13:05.814Z,18.50
2017-09-22T17:15:33.315Z,18.40
2017-09-22T17:18:00.862Z,18.40
2017-09-22T17:20:28.304Z,18.50
2017-09-22T17:22:55.877Z,18.50
2017-09-22T17:25:23.325Z,18.60
2017-09-22T17:27:50.802Z,18.70
2017-09-22T17:30:19.129Z,18.70
2017-09-22T17:32:46.769Z,18.70
2017-09-22T17:35:14.961Z,18.60
2017-09-22T17:37:42.414Z,18.60
2017-09-22T17:40:09.964Z,18.40
2017-09-22T17:42:37.464Z,18.30
2017-09-22T17:45:04.902Z,18.20
2017-09-22T17:47:32.391Z,18.20
2017-09-22T17:49:59.849Z,18.10
2017-09-22T17:52:27.274Z,18.20
2017-09-22T17:54:54.859Z,18.20
2017-09-22T17:57:22.413Z,18.30
2017-09-22T17:59:50.712Z,18.30
2017-09-22T18:02:18.256Z,18.30
2017-09-22T18:04:45.699Z,18.40
2017-09-22T18:07:13.163Z,18.40
2017-09-22T18:09:40.606Z,18.40
2017-09-22T18:12:08.047Z,18.30
2017-09-22T18:14:35.636Z,18.20
2017-09-22T18:17:03.081Z,18.20
2017-09-22T18:19:30.524Z,18.10
2017-09-22T18:21:57.958Z,18.00
2017-09-22T18:24:25.427Z,17.90
2017-09-22T18:26:52.860Z,17.80
2017-09-22T18:29:20.304Z,17.70
2017-09-22T18:31:47.750Z,17.70
2017-09-22T18:34:15.972Z,17.60
2017-09-22T18:36:43.443Z,17.50
2017-09-22T18:39:10.983Z,17.60
2017-09-22T18:41:38.410Z,17.60
2017-09-22T18:44:06.654Z,17.60
2017-09-22T18:46:34.103Z,17.50
2017-09-22T18:49:01.546Z,17.60
2017-09-22T18:51:29.038Z,17.70
2017-09-22T18:53:57.258Z,17.70
2017-09-22T18:56:24.847Z,17.70
2017-09-22T18:58:52.291Z,17.60
2017-09-22T19:01:19.755Z,17.60
2017-09-22T19:03:47.184Z,17.60
2017-09-22T19:06:14.626Z,17.40
2017-09-22T19:08:42.070Z,17.40
2017-09-22T19:11:09.584Z,17.40
2017-09-22T19:13:37.051Z,17.40
2017-09-22T19:16:04.615Z,17.40
2017-09-22T19:18:32.047Z,17.40
2017-09-22T19:20:59.506Z,17.40
2017-09-22T19:23:26.969Z,17.40
2017-09-22T19:25:54.412Z,17.40
2017-09-22T19:28:21.898Z,17.40
2017-09-22T19:30:50.163Z,17.40
2017-09-22T19:33:17.714Z,17.30
2017-09-22T19:35:45.171Z,17.40
2017-09-22T19:38:12.626Z,17.30
2017-09-22T19:40:40.066Z,17.30
2017-09-22T19:43:07.537Z,17.30
2017-09-22T19:45:35.014Z,17.20
2017-09-22T19:48:02.549Z,17.20
2017-09-22T19:50:30.016Z,17.10
2017-09-22T19:52:57.538Z,17.00
2017-09-22T19:55:24.980Z,16.90
2017-09-22T19:57:52.477Z,16.80
2017-09-22T20:00:19.932Z,16.80
2017-09-22T20:02:47.514Z,16.70
2017-09-22T20:05:14.954Z,16.60
2017-09-22T20:07:42.481Z,16.60
2017-09-22T20:10:10.141Z,16.60
2017-09-22T20:12:37.635Z,16.60
2017-09-22T20:15:05.090Z,16.50
2017-09-22T20:17:32.531Z,16.50
2017-09-22T20:20:00.091Z,16.40
2017-09-22T20:22:27.545Z,16.40
2017-09-22T20:24:54.982Z,16.40
2017-09-22T20:27:22.439Z,16.30
2017-09-22T20:29:49.915Z,16.30
2017-09-22T20:32:18.347Z,16.20
2017-09-22T20:34:46.587Z,16.10
2017-09-22T20:37:14.008Z,16.10
2017-09-22T20:39:41.523Z,16.20
2017-09-22T20:42:10.490Z,16.10
2017-09-22T20:44:37.958Z,16.10
2017-09-22T20:47:05.408Z,16.10
2017-09-22T20:49:32.952Z,16.20
2017-09-22T20:52:00.410Z,16.20
2017-09-22T20:54:27.862Z,16.30
2017-09-22T20:56:55.307Z,16.30
2017-09-22T20:59:22.791Z,16.30
2017-09-22T21:01:50.236Z,16.30
2017-09-22T21:04:17.693Z,16.30
2017-09-22T21:06:45.124Z,16.30
2017-09-22T21:09:12.578Z,16.20
2017-09-22T21:11:40.058Z,16.10
2017-09-22T21:14:07.535Z,16.10
2017-09-22T21:16:35.077Z,16.00
2017-09-22T21:19:02.622Z,16.00
2017-09-22T21:21:30.083Z,16.00
2017-09-22T21:23:57.519Z,16.00
2017-09-22T21:26:24.992Z,16.00
2017-09-22T21:28:52.430Z,15.90
2017-09-22T21:31:19.901Z,15.90
2017-09-22T21:33:47.396Z,15.90
2017-09-22T21:36:14.832Z,15.80
2017-09-22T21:38:42.274Z,15.80
2017-09-22T21:41:09.730Z,15.80
2017-09-22T21:43:37.183Z,15.70
2017-09-22T21:46:04.644Z,15.60
2017-09-22T21:48:32.104Z,15.60
2017-09-22T21:50:59.550Z,15.50
2017-09-22T21:53:27.016Z,15.60
2017-09-22T21:55:54.489Z,15.60
2017-09-22T21:58:22.022Z,15.70
2017-09-22T22:00:49.521Z,15.70
2017-09-22T22:03:23.315Z,15.70
2017-09-22T22:05:51.643Z,15.70
2017-09-22T22:08:19.113Z,15.70
2017-09-22T22:10:47.349Z,15.80
2017-09-22T22:13:15.563Z,15.70
2017-09-22T22:15:43.010Z,15.70
2017-09-22T22:18:10.475Z,15.70
2017-09-22T22:20:37.918Z,15.70
2017-09-22T22:23:05.480Z,15.60
2017-09-22T22:25:32.903Z,15.60
2017-09-22T22:28:01.143Z,15.60
2017-09-22T22:30:28.591Z,15.50
2017-09-22T22:32:56.034Z,15.60
2017-09-22T22:35:23.491Z,15.70
2017-09-22T22:37:50.947Z,15.80
2017-09-22T22:40:18.416Z,15.90
2017-09-22T22:42:45.858Z,16.00
2017-09-22T22:45:13.316Z,16.10
2017-09-22T22:47:40.756Z,16.00
2017-09-22T22:50:08.189Z,16.00
2017-09-22T22:52:35.710Z,16.00
2017-09-22T22:55:03.261Z,16.00
2017-09-22T22:57:30.709Z,15.90
2017-09-22T22:59:58.176Z,15.90
2017-09-22T23:02:25.610Z,16.00
2017-09-22T23:04:53.064Z,16.10
2017-09-22T23:07:20.712Z,15.90
2017-09-22T23:09:48.190Z,15.80
2017-09-22T23:12:15.651Z,15.60
2017-09-22T23:14:43.170Z,15.50
2017-09-22T23:17:10.602Z,15.50
2017-09-22T23:19:39.209Z,15.50
2017-09-22T23:22:06.810Z,15.40
2017-09-22T23:24:34.259Z,15.50
2017-09-22T23:27:01.711Z,15.60
2017-09-22T23:29:29.293Z,15.60
2017-09-22T23:31:56.706Z,15.70
2017-09-22T23:34:24.164Z,15.80
2017-09-22T23:36:51.598Z,15.80
2017-09-22T23:39:19.100Z,15.70
2017-09-22T23:41:46.563Z,15.80
2017-09-22T23:44:14.016Z,15.80
2017-09-22T23:46:41.455Z,15.80
2017-09-22T23:49:08.918Z,15.70
2017-09-22T23:51:36.368Z,15.70
2017-09-22T23:54:03.802Z,15.60
2017-09-22T23:56:31.390Z,15.70
2017-09-22T23:58:58.895Z,15.60
